Time;durP1;ratioP1;P1;durP2;ratioP2;P2;SDS_P1;SDS_P2;PMS_P1;PMS_P2;Temp;Humidity;BMP_temperature;BMP_pressure;BME280_temperature;BME280_humidity;BME280_pressure;Samples;Min_cycle;Max_cycle;Signal;HPM_P1;HPM_P2
2023/12/21 00:00:13;;;;;;;;;;;9.40;61.10;;;8.01;63.30;99783.34;12247156;19;19996;-84
2023/12/21 00:04:14;;;;;;;;;;;9.40;61.10;;;7.80;63.31;99731.72;12249943;19;19923;-84
2023/12/21 00:08:15;;;;;;;;;;;9.40;61.10;;;7.98;63.33;99745.38;12248985;19;20271;-84
2023/12/21 00:12:17;;;;;;;;;;;9.30;61.10;;;8.03;63.19;99719.09;12246787;19;19974;-84
2023/12/21 00:16:18;;;;;;;;;;;9.40;61.20;;;7.94;63.27;99697.13;12248640;19;20378;-84
2023/12/21 00:20:20;;;;;;;;;;;9.40;61.30;;;8.01;63.35;99681.97;12245145;19;19915;-84
2023/12/21 00:24:22;;;;;;;;;;;9.40;61.40;;;8.05;63.50;99675.66;12246741;19;20333;-84
2023/12/21 00:28:23;;;;;;;;;;;9.40;61.50;;;7.69;63.43;99599.00;12248777;19;20333;-84
2023/12/21 00:32:25;;;;;;;;;;;9.40;61.70;;;7.92;63.58;99615.78;12244181;19;19919;-84
2023/12/21 00:36:27;;;;;;;;;;;9.40;61.90;;;7.78;63.33;99582.84;12248579;19;19939;-84
2023/12/21 00:40:29;;;;;;;;;;;9.40;62.00;;;7.98;63.52;99605.00;12246254;19;19919;-84
2023/12/21 00:44:30;;;;;;;;;;;9.40;62.40;;;7.98;63.38;99592.81;12247910;19;19919;-84
2023/12/21 00:48:32;;;;;;;;;;;9.40;62.50;;;8.03;63.39;99582.16;12243285;19;19919;-84
2023/12/21 00:52:34;;;;;;;;;;;9.40;62.60;;;7.97;63.43;99548.75;12243505;19;19918;-84
2023/12/21 00:56:35;;;;;;;;;;;9.40;63.00;;;8.10;63.49;99559.19;12245440;19;19927;-84
2023/12/21 01:00:37;;;;;;;;;;;9.40;62.80;;;7.93;63.45;99523.88;12243893;19;19915;-84
2023/12/21 01:04:39;;;;;;;;;;;9.50;63.20;;;8.08;63.62;99537.66;12244948;19;19921;-84
2023/12/21 01:08:40;;;;;;;;;;;9.50;63.60;;;8.19;63.71;99536.03;12253434;19;20256;-84
2023/12/21 01:12:41;;;;;;;;;;;9.50;63.30;;;8.25;63.70;99531.38;12249934;19;19929;-84
2023/12/21 01:16:43;;;;;;;;;;;9.60;63.40;;;8.23;63.66;99515.84;12259281;19;19923;-84
2023/12/21 01:20:44;;;;;;;;;;;9.60;63.20;;;8.20;63.47;99497.84;12252548;19;19915;-84
2023/12/21 01:24:46;;;;;;;;;;;9.70;63.70;;;8.38;63.63;99501.03;12253983;19;20289;-84
2023/12/21 01:28:47;;;;;;;;;;;9.70;63.60;;;8.31;63.56;99484.97;12257390;19;20422;-84
2023/12/21 01:32:49;;;;;;;;;;;9.80;63.70;;;8.35;63.44;99476.06;12252258;19;20348;-85
2023/12/21 01:36:50;;;;;;;;;;;9.80;64.10;;;8.24;63.60;99441.31;12255602;19;19916;-84
2023/12/21 01:40:52;;;;;;;;;;;9.90;63.80;;;8.46;63.72;99469.34;12252771;19;19919;-84
2023/12/21 01:44:54;;;;;;;;;;;10.00;64.00;;;8.61;63.57;99473.50;12256624;19;19946;-84
2023/12/21 01:48:55;;;;;;;;;;;10.00;63.80;;;8.58;63.63;99453.72;12256595;19;19923;-84
2023/12/21 01:52:58;;;;;;;;;;;10.00;63.90;;;8.68;63.73;99453.94;12251079;19;19914;-84
2023/12/21 01:57:00;;;;;;;;;;;10.10;63.90;;;8.53;63.81;99418.53;12254616;19;19915;-84
2023/12/21 02:01:03;;;;;;;;;;;10.10;64.10;;;8.66;63.79;99432.38;12253112;19;19915;-84
2023/12/21 02:05:05;;;;;;;;;;;10.20;64.10;;;8.81;63.67;99444.38;12254224;19;19926;-84
2023/12/21 02:09:07;;;;;;;;;;;10.20;64.50;;;8.82;63.82;99425.19;12254439;19;19948;-84
2023/12/21 02:13:08;;;;;;;;;;;10.20;64.00;;;8.92;63.66;99442.81;12251832;19;19919;-84
2023/12/21 02:17:13;;;;;;;;;;;10.30;64.30;;;8.95;63.90;99417.38;12252488;19;19911;-84
2023/12/21 02:21:15;;;;;;;;;;;10.30;64.00;;;9.00;63.86;99414.47;12250922;19;20020;-84
2023/12/21 02:25:17;;;;;;;;;;;10.40;64.50;;;9.03;63.91;99404.66;12247984;19;19940;-84
2023/12/21 02:29:18;;;;;;;;;;;10.40;64.40;;;9.02;63.91;99415.19;12254045;19;19971;-84
2023/12/21 02:33:20;;;;;;;;;;;10.40;64.30;;;9.08;63.81;99399.13;12250655;19;19926;-84
2023/12/21 02:37:22;;;;;;;;;;;10.50;64.40;;;9.14;63.75;99388.28;12254467;19;19935;-84
2023/12/21 02:41:23;;;;;;;;;;;10.50;64.50;;;9.19;63.95;99395.78;12249296;19;19919;-84
2023/12/21 02:45:25;;;;;;;;;;;10.50;64.50;;;9.10;63.76;99368.63;12252156;19;20338;-84
2023/12/21 02:49:27;;;;;;;;;;;10.60;64.80;;;9.15;63.90;99376.09;12251723;19;19914;-84
2023/12/21 02:53:28;;;;;;;;;;;10.60;64.60;;;9.20;63.91;99377.41;12247721;19;19922;-84
2023/12/21 02:57:30;;;;;;;;;;;10.60;64.50;;;9.06;63.80;99347.16;12253801;19;19923;-84
2023/12/21 03:01:32;;;;;;;;;;;10.60;64.30;;;9.02;63.76;99316.25;12250611;19;19919;-84
2023/12/21 03:05:34;;;;;;;;;;;10.70;64.30;;;9.14;64.04;99336.19;12250960;19;19919;-84
2023/12/21 03:09:35;;;;;;;;;;;10.70;64.70;;;9.20;63.98;99330.53;12250329;19;20318;-84
2023/12/21 03:13:37;;;;;;;;;;;10.70;64.50;;;9.39;63.83;99352.66;12248762;19;19948;-84
2023/12/21 03:17:38;;;;;;;;;;;10.70;64.30;;;9.41;63.81;99346.41;12252473;19;19907;-84
2023/12/21 03:21:40;;;;;;;;;;;10.70;64.30;;;9.31;64.05;99311.53;12247992;19;20304;-84
2023/12/21 03:25:42;;;;;;;;;;;10.80;64.20;;;9.36;63.98;99313.81;12250703;19;19927;-84
2023/12/21 03:29:44;;;;;;;;;;;10.90;64.10;;;9.44;63.95;99317.50;12248024;19;19923;-84
2023/12/21 03:33:46;;;;;;;;;;;10.80;64.10;;;9.50;63.86;99321.44;12248189;19;20343;-84
2023/12/21 03:37:47;;;;;;;;;;;10.80;64.30;;;9.46;63.83;99310.41;12249875;19;19915;-84
2023/12/21 03:41:49;;;;;;;;;;;10.80;64.20;;;9.54;64.09;99307.25;12246811;19;19918;-84
2023/12/21 03:45:51;;;;;;;;;;;10.90;64.20;;;9.47;63.89;99301.66;12245580;19;19918;-84
2023/12/21 03:49:53;;;;;;;;;;;10.90;64.30;;;9.36;64.00;99278.16;12247782;19;19963;-84
2023/12/21 03:53:54;;;;;;;;;;;11.00;64.60;;;9.58;63.87;99298.25;12243435;19;19915;-84
2023/12/21 03:57:59;;;;;;;;;;;10.90;64.50;;;9.52;63.98;99289.09;12249484;19;19982;-84
2023/12/21 04:02:01;;;;;;;;;;;11.10;64.60;;;9.63;64.07;99298.75;12243980;19;19918;-84
2023/12/21 04:06:03;;;;;;;;;;;11.20;64.70;;;9.61;63.96;99295.41;12246630;19;20349;-84
2023/12/21 04:10:05;;;;;;;;;;;11.00;64.50;;;9.66;63.89;99282.03;12246889;19;19932;-84
2023/12/21 04:14:07;;;;;;;;;;;11.00;64.70;;;9.69;64.09;99271.38;12243595;19;20390;-84
2023/12/21 04:18:09;;;;;;;;;;;11.00;64.90;;;9.70;64.07;99267.84;12248844;19;19924;-84
2023/12/21 04:22:11;;;;;;;;;;;11.10;64.80;;;9.69;64.03;99264.41;12244777;19;19919;-84
2023/12/21 04:26:20;;;;;;;;;;;11.10;64.80;;;9.69;63.86;99247.94;12246515;19;19943;-84
2023/12/21 04:30:21;;;;;;;;;;;11.10;64.70;;;9.80;63.92;99265.38;12245885;19;20325;-84
2023/12/21 04:34:23;;;;;;;;;;;11.10;64.50;;;9.79;63.87;99250.69;12247434;19;19921;-84
2023/12/21 04:38:24;;;;;;;;;;;11.10;64.50;;;9.69;64.01;99238.34;12246307;19;19978;-84
2023/12/21 04:42:26;;;;;;;;;;;11.20;64.60;;;9.84;63.99;99246.78;12238384;19;20399;-84
2023/12/21 04:46:27;;;;;;;;;;;11.20;64.60;;;9.77;64.07;99235.16;12246244;19;19930;-84
2023/12/21 04:50:29;;;;;;;;;;;11.20;64.50;;;9.79;64.05;99235.88;12243596;19;19945;-84
2023/12/21 04:54:30;;;;;;;;;;;11.20;64.60;;;9.87;63.91;99240.50;12247303;19;19932;-84
2023/12/21 04:58:32;;;;;;;;;;;11.30;64.90;;;9.91;64.04;99239.31;12246630;19;20734;-84
2023/12/21 05:02:34;;;;;;;;;;;11.30;64.80;;;9.85;64.11;99221.53;12242558;19;19974;-84
2023/12/21 05:06:35;;;;;;;;;;;11.30;64.80;;;9.97;63.90;99231.84;12245816;19;19989;-84
2023/12/21 05:10:36;;;;;;;;;;;11.30;64.80;;;10.09;63.94;99244.91;12241536;19;19915;-84
2023/12/21 05:14:38;;;;;;;;;;;11.40;64.90;;;10.01;63.93;99227.22;12246219;19;19943;-84
2023/12/21 05:18:40;;;;;;;;;;;11.40;64.80;;;10.15;64.07;99240.06;12245264;19;19942;-84
2023/12/21 05:22:42;;;;;;;;;;;11.60;64.70;;;10.05;63.99;99217.41;12242336;19;19946;-84
2023/12/21 05:26:43;;;;;;;;;;;11.50;64.70;;;10.13;64.10;99215.84;12242085;19;19921;-84
2023/12/21 05:30:46;;;;;;;;;;;11.50;64.80;;;10.19;64.09;99217.97;12243496;19;20266;-84
2023/12/21 05:34:47;;;;;;;;;;;11.60;64.80;;;10.25;63.99;99205.41;12241105;19;20342;-84
2023/12/21 05:38:49;;;;;;;;;;;11.50;64.80;;;10.23;64.10;99194.25;12244931;19;19919;-84
2023/12/21 05:42:51;;;;;;;;;;;11.60;64.80;;;10.19;64.15;99178.03;12243809;19;20271;-84
2023/12/21 05:46:53;;;;;;;;;;;11.60;65.00;;;10.22;63.98;99174.34;12244737;19;19918;-84
2023/12/21 05:50:55;;;;;;;;;;;11.60;64.90;;;10.34;64.04;99186.44;12241814;19;19926;-84
2023/12/21 05:54:57;;;;;;;;;;;11.60;64.80;;;10.37;64.12;99191.44;12254400;19;20254;-84
2023/12/21 05:58:58;;;;;;;;;;;11.60;65.10;;;10.34;64.08;99171.66;12256378;19;19911;-84
2023/12/21 06:03:00;;;;;;;;;;;11.70;65.00;;;10.38;63.91;99175.66;12254277;19;19915;-84
2023/12/21 06:07:02;;;;;;;;;;;11.70;65.10;;;10.44;64.17;99165.69;12253040;19;19947;-84
2023/12/21 06:11:03;;;;;;;;;;;11.70;65.10;;;10.43;64.18;99158.81;12251783;19;19970;-84
2023/12/21 06:15:05;;;;;;;;;;;11.70;64.90;;;10.26;64.12;99119.22;12255135;19;20363;-84
2023/12/21 06:19:10;;;;;;;;;;;11.70;64.80;;;10.23;64.13;99095.13;12254261;19;20019;-84
2023/12/21 06:23:12;;;;;;;;;;;11.70;64.80;;;10.30;63.94;99119.81;12252765;19;19914;-84
2023/12/21 06:27:13;;;;;;;;;;;11.70;64.80;;;10.41;64.01;99125.81;12253672;19;19907;-84
2023/12/21 06:31:17;;;;;;;;;;;11.70;64.80;;;10.40;64.16;99123.34;12249812;19;20267;-84
2023/12/21 06:35:18;;;;;;;;;;;11.80;64.70;;;10.40;64.17;99111.13;12252085;19;20227;-84
2023/12/21 06:39:20;;;;;;;;;;;11.70;64.70;;;10.25;64.00;99074.97;12251093;19;19930;-85
2023/12/21 06:43:22;;;;;;;;;;;11.70;64.70;;;10.38;64.13;99101.75;12249212;19;19910;-85
2023/12/21 06:47:23;;;;;;;;;;;11.70;64.80;;;10.27;64.08;99076.53;12251282;19;19967;-86
2023/12/21 06:51:25;;;;;;;;;;;11.70;64.50;;;10.34;64.02;99082.06;12246785;19;20358;-85
2023/12/21 06:55:26;;;;;;;;;;;11.70;64.70;;;10.27;64.15;99070.47;12250817;19;19931;-85
2023/12/21 06:59:29;;;;;;;;;;;11.70;64.70;;;10.25;64.01;99049.72;12248357;19;19915;-85
2023/12/21 07:03:32;;;;;;;;;;;11.70;64.70;;;10.32;64.24;99050.91;12246967;19;20282;-84
2023/12/21 07:07:34;;;;;;;;;;;11.70;65.00;;;10.35;64.10;99036.78;12250696;19;19918;-85
2023/12/21 07:11:36;;;;;;;;;;;11.70;65.00;;;10.33;64.34;99029.06;12247606;19;20015;-84
2023/12/21 07:15:37;;;;;;;;;;;11.60;65.00;;;10.20;64.10;99000.50;12252075;19;20349;-83
2023/12/21 07:19:39;;;;;;;;;;;11.60;64.90;;;10.31;64.15;99002.28;12249463;19;19936;-84
2023/12/21 07:23:40;;;;;;;;;;;11.60;65.10;;;10.34;64.07;98994.22;12250081;19;19919;-85
2023/12/21 07:27:42;;;;;;;;;;;11.60;65.30;;;10.23;64.19;98964.69;12249327;19;19936;-85
2023/12/21 07:31:43;;;;;;;;;;;11.60;65.10;;;10.30;64.06;98978.94;12246055;19;19914;-84
2023/12/21 07:35:45;;;;;;;;;;;11.60;65.20;;;10.28;64.18;98952.97;12247771;19;19923;-85
2023/12/21 07:39:46;;;;;;;;;;;11.60;65.10;;;10.35;64.09;98951.50;12249567;19;19935;-85
2023/12/21 07:43:48;;;;;;;;;;;11.60;65.30;;;10.38;64.31;98947.81;12248657;19;19927;-85
2023/12/21 07:47:49;;;;;;;;;;;11.70;65.50;;;10.28;64.10;98895.56;12249361;19;19911;-86
2023/12/21 07:51:51;;;;;;;;;;;11.70;65.90;;;10.25;64.15;98872.31;12243831;19;19998;-85
2023/12/21 07:55:53;;;;;;;;;;;11.70;65.50;;;10.23;64.13;98870.78;12249839;19;19918;-85
2023/12/21 07:59:54;;;;;;;;;;;11.70;65.60;;;10.32;64.28;98881.31;12247249;19;19919;-85
2023/12/21 08:03:56;;;;;;;;;;;11.70;65.40;;;10.34;64.21;98882.03;12247857;19;19978;-85
2023/12/21 08:07:58;;;;;;;;;;;11.70;65.60;;;10.32;64.21;98846.59;12242425;19;19982;-86
2023/12/21 08:11:59;;;;;;;;;;;11.70;65.50;;;10.37;64.23;98839.22;12246311;19;20303;-85
2023/12/21 08:16:00;;;;;;;;;;;11.70;65.60;;;10.12;64.14;98793.44;12248105;19;20286;-85
2023/12/21 08:20:06;;;;;;;;;;;11.70;66.00;;;10.40;64.27;98821.50;12248241;19;19923;-85
2023/12/21 08:24:07;;;;;;;;;;;11.70;65.80;;;10.31;63.97;98790.13;12247910;19;20269;-86
2023/12/21 08:28:09;;;;;;;;;;;11.70;65.70;;;10.46;64.17;98801.88;12246623;19;19932;-84
2023/12/21 08:32:11;;;;;;;;;;;11.70;65.90;;;10.39;64.21;98772.84;12244470;19;19922;-84
2023/12/21 08:36:12;;;;;;;;;;;11.70;65.90;;;10.46;64.32;98749.69;12248026;19;20373;-85
2023/12/21 08:40:15;;;;;;;;;;;11.80;65.90;;;10.37;64.39;98742.66;12246297;19;19926;-85
2023/12/21 08:44:16;;;;;;;;;;;11.80;66.20;;;10.45;64.39;98729.78;12242105;19;20245;-85
2023/12/21 08:48:18;;;;;;;;;;;11.80;66.20;;;10.48;64.20;98713.84;12246448;19;19915;-85
2023/12/21 08:52:19;;;;;;;;;;;11.80;66.40;;;10.45;64.38;98708.91;12241811;19;19919;-85
2023/12/21 08:56:22;;;;;;;;;;;11.80;67.10;;;10.48;64.36;98695.59;12245237;19;19919;-84
2023/12/21 09:00:24;;;;;;;;;;;11.80;66.30;;;10.49;64.29;98688.59;12243871;19;19944;-84
2023/12/21 09:04:26;;;;;;;;;;;11.80;66.80;;;10.47;64.30;98670.44;12245256;19;19918;-84
2023/12/21 09:08:28;;;;;;;;;;;11.80;67.10;;;10.53;64.27;98659.47;12243433;19;19914;-85
2023/12/21 09:12:29;;;;;;;;;;;11.80;66.80;;;10.53;64.23;98642.97;12241876;19;19914;-85
2023/12/21 09:16:31;;;;;;;;;;;11.80;66.30;;;10.53;64.22;98643.81;12244329;19;19923;-84
2023/12/21 09:20:32;;;;;;;;;;;11.80;66.50;;;10.46;64.24;98594.91;12240754;19;19915;-85
2023/12/21 09:24:33;;;;;;;;;;;11.90;66.10;;;10.56;64.29;98596.56;12243368;19;19950;-86
2023/12/21 09:28:36;;;;;;;;;;;11.90;66.40;;;10.54;64.43;98585.44;12250039;19;19922;-84
2023/12/21 09:32:40;;;;;;;;;;;11.90;66.60;;;10.61;64.39;98583.94;12252101;19;19923;-85
2023/12/21 09:36:41;;;;;;;;;;;11.90;66.40;;;10.55;64.32;98553.16;12254791;19;19934;-84
2023/12/21 09:40:42;;;;;;;;;;;11.90;67.30;;;10.59;64.28;98538.88;12252968;19;20588;-85
2023/12/21 09:44:47;;;;;;;;;;;11.90;66.80;;;10.60;64.21;98535.28;12254199;19;19921;-86
2023/12/21 09:48:48;;;;;;;;;;;12.00;66.90;;;10.48;64.47;98510.31;12257018;19;20342;-87
2023/12/21 09:52:50;;;;;;;;;;;12.00;66.50;;;10.58;64.29;98503.28;12250532;19;19953;-85
2023/12/21 09:56:51;;;;;;;;;;;12.00;66.30;;;10.72;64.45;98519.47;12253356;19;19918;-85
2023/12/21 10:00:53;;;;;;;;;;;12.00;66.50;;;10.72;64.52;98498.59;12250419;19;19918;-84
2023/12/21 10:04:54;;;;;;;;;;;12.00;66.40;;;10.72;64.48;98485.53;12256737;19;19919;-85
2023/12/21 10:08:56;;;;;;;;;;;11.90;66.20;;;10.63;64.24;98445.44;12253376;19;19933;-87
2023/12/21 10:12:58;;;;;;;;;;;12.00;66.60;;;10.80;64.50;98455.19;12251528;19;19919;-85
2023/12/21 10:17:01;;;;;;;;;;;12.00;66.50;;;10.71;64.43;98416.03;12254672;19;19914;-85
2023/12/21 10:21:02;;;;;;;;;;;12.10;67.10;;;10.74;64.40;98406.13;12251070;19;19990;-85
2023/12/21 10:25:04;;;;;;;;;;;12.10;66.50;;;10.80;64.49;98423.00;12252132;19;19978;-85
2023/12/21 10:29:06;;;;;;;;;;;12.10;66.50;;;10.83;64.61;98394.03;12252801;19;19934;-83
2023/12/21 10:33:09;;;;;;;;;;;12.10;66.60;;;10.76;64.53;98364.22;12249840;19;19919;-84
2023/12/21 10:37:11;;;;;;;;;;;12.10;67.50;;;10.79;64.70;98369.97;12253766;19;20530;-84
2023/12/21 10:41:12;;;;;;;;;;;12.10;67.10;;;10.71;64.49;98345.56;12249702;19;19911;-85
2023/12/21 10:45:16;;;;;;;;;;;12.20;66.90;;;10.90;64.58;98334.19;12250699;19;19915;-84
2023/12/21 10:49:17;;;;;;;;;;;12.20;66.90;;;10.87;64.41;98331.88;12253644;19;19982;-84
2023/12/21 10:53:22;;;;;;;;;;;12.20;66.70;;;10.81;64.47;98296.75;12249087;19;19911;-84
2023/12/21 10:57:23;;;;;;;;;;;12.20;66.90;;;10.69;64.43;98256.94;12252195;19;19928;-84
2023/12/21 11:01:27;;;;;;;;;;;12.20;67.30;;;10.84;64.51;98259.91;12248591;19;19928;-84
2023/12/21 11:05:31;;;;;;;;;;;12.20;67.70;;;10.87;64.57;98241.31;12248391;19;19926;-84
2023/12/21 11:09:33;;;;;;;;;;;12.20;67.10;;;11.00;64.63;98248.78;12248968;19;19915;-84
2023/12/21 11:13:35;;;;;;;;;;;12.30;67.20;;;10.70;64.67;98198.56;12246797;19;19926;-84
2023/12/21 11:17:39;;;;;;;;;;;12.30;67.20;;;10.99;64.42;98221.88;12249284;19;19919;-84
2023/12/21 11:21:42;;;;;;;;;;;12.30;66.90;;;10.89;64.48;98181.13;12247359;19;19945;-84
2023/12/21 11:25:43;;;;;;;;;;;12.30;66.90;;;11.03;64.49;98186.63;12249858;19;20326;-84
2023/12/21 11:29:45;;;;;;;;;;;12.30;67.50;;;10.79;64.58;98129.00;12248888;19;19915;-84
2023/12/21 11:33:47;;;;;;;;;;;12.40;67.10;;;10.94;64.51;98143.16;12245036;19;19929;-84
2023/12/21 11:37:50;;;;;;;;;;;12.40;66.80;;;10.99;64.62;98138.31;12249297;19;19918;-84
2023/12/21 11:41:59;;;;;;;;;;;12.40;66.90;;;10.97;64.52;98115.94;12246422;19;19986;-84
2023/12/21 11:46:00;;;;;;;;;;;12.40;66.80;;;11.08;64.64;98120.91;12249988;19;20311;-84
2023/12/21 11:50:04;;;;;;;;;;;12.40;67.20;;;11.05;64.52;98095.09;12244835;19;19926;-84
2023/12/21 11:54:06;;;;;;;;;;;12.40;67.30;;;11.12;64.52;98100.50;12247469;19;19919;-84
2023/12/21 11:58:16;;;;;;;;;;;12.40;67.20;;;11.16;64.78;98089.63;12247887;19;19922;-84
2023/12/21 12:02:18;;;;;;;;;;;12.40;67.00;;;11.18;64.72;98072.00;12247328;19;19963;-84
2023/12/21 12:06:21;;;;;;;;;;;12.50;67.60;;;11.10;64.50;98055.44;12247173;19;19951;-84
2023/12/21 12:10:23;;;;;;;;;;;12.40;67.00;;;11.00;64.51;98019.81;12245292;19;19918;-84
2023/12/21 12:14:24;;;;;;;;;;;12.50;67.20;;;11.18;64.77;98027.59;12245472;19;20070;-83
2023/12/21 12:18:26;;;;;;;;;;;12.50;67.00;;;11.11;64.56;98010.91;12247775;19;19945;-84
2023/12/21 12:22:28;;;;;;;;;;;12.50;67.00;;;11.04;64.48;97979.38;12243000;19;19919;-84
2023/12/21 12:26:29;;;;;;;;;;;12.50;67.20;;;11.29;64.60;97984.72;12246922;19;20318;-84
2023/12/21 12:30:31;;;;;;;;;;;12.50;67.50;;;11.04;64.64;97931.53;12244161;19;19950;-84
2023/12/21 12:34:34;;;;;;;;;;;12.60;67.50;;;11.21;64.46;97943.69;12246392;19;20456;-84
2023/12/21 12:38:35;;;;;;;;;;;12.60;67.30;;;11.34;64.48;97943.25;12244632;19;19927;-84
2023/12/21 12:42:37;;;;;;;;;;;12.60;67.40;;;11.21;64.70;97908.94;12243936;19;20235;-84
2023/12/21 12:46:39;;;;;;;;;;;12.60;67.10;;;11.38;64.67;97917.63;12245496;19;20346;-84
2023/12/21 12:50:41;;;;;;;;;;;12.60;67.60;;;11.41;64.66;97914.69;12244238;19;19915;-84
2023/12/21 12:54:45;;;;;;;;;;;12.60;67.70;;;11.38;64.63;97887.09;12245991;19;20182;-84
2023/12/21 12:58:47;;;;;;;;;;;12.60;67.30;;;11.21;64.67;97847.06;12246204;19;19923;-84
2023/12/21 13:02:48;;;;;;;;;;;12.70;67.10;;;11.36;64.49;97862.09;12247767;19;20048;-84
2023/12/21 13:06:51;;;;;;;;;;;12.70;67.40;;;11.45;64.71;97858.50;12258008;19;20340;-84
2023/12/21 13:10:53;;;;;;;;;;;12.70;67.50;;;11.42;64.59;97835.31;12255033;19;19927;-84
2023/12/21 13:14:54;;;;;;;;;;;12.70;67.20;;;11.45;64.71;97819.31;12257315;19;19926;-84
2023/12/21 13:18:56;;;;;;;;;;;12.70;67.20;;;11.43;64.49;97806.44;12258555;19;19975;-84
2023/12/21 13:22:58;;;;;;;;;;;12.70;68.20;;;11.39;64.69;97794.66;12259576;19;19939;-84
2023/12/21 13:27:01;;;;;;;;;;;12.70;67.40;;;11.36;64.87;97771.47;12255333;19;20353;-84
2023/12/21 13:31:02;;;;;;;;;;;12.70;67.50;;;11.47;64.64;97763.28;12245788;19;19929;-84
2023/12/21 13:35:04;;;;;;;;;;;12.80;67.50;;;11.23;64.62;97726.72;12257480;19;19918;-85
2023/12/21 13:39:06;;;;;;;;;;;12.80;67.50;;;11.36;64.56;97732.28;12255357;19;19940;-84
2023/12/21 13:43:08;;;;;;;;;;;12.80;67.30;;;11.50;64.59;97733.41;12255193;19;19911;-85
2023/12/21 13:47:09;;;;;;;;;;;12.80;67.40;;;11.34;64.61;97704.69;12257124;19;19923;-85
2023/12/21 13:51:11;;;;;;;;;;;12.80;67.50;;;11.49;64.60;97719.53;12253509;19;19944;-85
2023/12/21 13:55:12;;;;;;;;;;;12.80;67.40;;;11.54;64.56;97733.91;12253792;19;20361;-85
2023/12/21 13:59:14;;;;;;;;;;;12.80;67.40;;;11.52;64.79;97718.41;12255529;19;19958;-85
2023/12/21 14:03:17;;;;;;;;;;;12.80;67.40;;;11.55;64.75;97688.50;12255344;19;19939;-85
2023/12/21 14:07:19;;;;;;;;;;;12.80;67.20;;;11.56;64.81;97670.06;12253775;19;19926;-85
2023/12/21 14:11:20;;;;;;;;;;;12.80;67.60;;;11.56;64.64;97664.00;12250880;19;19928;-84
2023/12/21 14:15:22;;;;;;;;;;;12.80;67.50;;;11.50;64.68;97640.19;12251649;19;20254;-84
2023/12/21 14:19:23;;;;;;;;;;;12.80;67.60;;;11.56;64.79;97628.25;12254233;19;19931;-84
2023/12/21 14:23:24;;;;;;;;;;;12.90;67.30;;;11.59;64.63;97637.53;12251279;19;20365;-84
2023/12/21 14:27:26;;;;;;;;;;;12.90;67.60;;;11.58;64.75;97620.22;12225795;19;20026;-84
2023/12/21 14:31:27;;;;;;;;;;;13.00;67.80;;;11.63;64.72;97628.38;12144607;19;20714;-84
2023/12/21 14:35:29;;;;;;;;;;;12.90;68.60;;;11.70;64.67;97629.34;12144741;19;20275;-85
2023/12/21 14:39:30;;;;;;;;;;;12.90;68.10;;;11.71;64.70;97605.63;12145112;19;19934;-84
2023/12/21 14:43:32;;;;;;;;;;;12.90;67.90;;;11.73;64.62;97595.03;12144545;19;20272;-84
2023/12/21 14:47:33;;;;;;;;;;;13.00;67.60;;;11.69;64.67;97578.03;12151698;19;20737;-85
2023/12/21 14:51:41;;;;;;;;;;;13.00;67.70;;;11.72;64.72;97599.44;12157776;19;20287;-84
2023/12/21 14:55:43;;;;;;;;;;;13.00;67.90;;;11.83;64.73;97615.75;12147430;19;19994;-84
2023/12/21 14:59:44;;;;;;;;;;;13.00;67.60;;;11.83;64.69;97608.72;12216900;19;19921;-84
2023/12/21 15:03:46;;;;;;;;;;;13.10;67.60;;;11.85;64.72;97648.56;12252542;19;19919;-84
2023/12/21 15:07:48;;;;;;;;;;;13.10;68.40;;;11.86;64.71;97638.97;12251772;19;20258;-85
2023/12/21 15:11:51;;;;;;;;;;;13.10;68.10;;;11.80;64.70;97666.56;12248596;19;19927;-85
2023/12/21 15:15:52;;;;;;;;;;;13.10;68.30;;;11.79;64.74;97670.16;12250840;19;19935;-84
2023/12/21 15:19:54;;;;;;;;;;;13.20;67.80;;;11.59;64.74;97671.53;12248990;19;20373;-85
2023/12/21 15:23:55;;;;;;;;;;;13.20;67.60;;;11.84;64.76;97733.22;12252380;19;20389;-84
2023/12/21 15:27:56;;;;;;;;;;;13.10;67.30;;;11.48;64.87;97688.38;12249787;19;19923;-84
2023/12/21 15:31:58;;;;;;;;;;;13.10;67.00;;;11.62;64.69;97746.97;12245591;19;19926;-85
2023/12/21 15:35:59;;;;;;;;;;;13.10;66.70;;;11.16;64.58;97681.38;12251638;19;19915;-85
2023/12/21 15:40:01;;;;;;;;;;;13.10;66.20;;;11.66;64.69;97785.66;12249584;19;19939;-84
2023/12/21 15:44:03;;;;;;;;;;;13.00;65.60;;;11.49;64.62;97771.00;12249958;19;19919;-84
2023/12/21 15:48:05;;;;;;;;;;;13.10;65.30;;;11.45;64.66;97780.13;12247303;19;20286;-84
2023/12/21 15:52:07;;;;;;;;;;;12.80;64.80;;;11.38;64.82;97766.09;12247544;19;19923;-84
2023/12/21 15:56:11;;;;;;;;;;;12.70;64.40;;;11.20;64.87;97703.53;12249255;19;19937;-85
2023/12/21 16:00:12;;;;;;;;;;;12.70;64.50;;;11.22;64.84;97743.38;12245525;19;19925;-84
2023/12/21 16:04:14;;;;;;;;;;;12.60;64.40;;;11.09;64.77;97738.63;12245828;19;19911;-85
2023/12/21 16:08:16;;;;;;;;;;;12.50;64.30;;;11.02;64.58;97722.00;12245932;19;19915;-85
2023/12/21 16:12:17;;;;;;;;;;;12.40;64.30;;;11.00;64.63;97740.41;12244878;19;20310;-85
2023/12/21 16:16:19;;;;;;;;;;;12.40;64.30;;;11.02;64.74;97767.19;12247554;19;19917;-85
2023/12/21 16:20:25;;;;;;;;;;;12.30;64.30;;;10.99;64.49;97764.91;12241179;19;21390;-85
2023/12/21 16:24:26;;;;;;;;;;;12.30;64.20;;;10.90;64.63;97783.31;12249073;19;19945;-85
2023/12/21 16:28:28;;;;;;;;;;;12.20;64.20;;;10.83;64.58;97767.50;12249140;19;19903;-85
2023/12/21 16:32:30;;;;;;;;;;;12.10;64.10;;;10.74;64.58;97752.75;12243613;19;20352;-85
2023/12/21 16:36:31;;;;;;;;;;;12.10;64.00;;;10.53;64.55;97737.53;12242299;19;19915;-85
2023/12/21 16:40:33;;;;;;;;;;;12.00;63.90;;;10.66;64.73;97765.78;12247039;19;19915;-84
2023/12/21 16:44:34;;;;;;;;;;;12.00;64.00;;;10.44;64.48;97744.50;12245905;19;19918;-84
2023/12/21 16:48:38;;;;;;;;;;;11.90;63.60;;;10.56;64.45;97787.63;12245743;19;19918;-85
2023/12/21 16:52:40;;;;;;;;;;;11.90;63.60;;;10.58;64.51;97816.97;12240537;19;20374;-85
2023/12/21 16:56:43;;;;;;;;;;;11.80;63.70;;;10.52;64.64;97829.84;12244139;19;19948;-85
2023/12/21 17:00:44;;;;;;;;;;;11.80;63.80;;;10.27;64.77;97808.00;12243252;19;19923;-85
2023/12/21 17:04:46;;;;;;;;;;;11.80;63.80;;;10.18;64.46;97801.94;12244530;19;19927;-85
2023/12/21 17:08:48;;;;;;;;;;;11.80;63.70;;;9.84;64.41;97754.94;12245329;19;19915;-86
2023/12/21 17:12:55;;;;;;;;;;;11.70;63.90;;;10.12;64.65;97818.16;12244111;19;19931;-86
2023/12/21 17:16:59;;;;;;;;;;;11.70;63.60;;;9.96;64.64;97793.66;12244617;19;19919;-86
2023/12/21 17:21:01;;;;;;;;;;;11.70;63.60;;;9.79;64.52;97778.03;12239630;19;20337;-85
2023/12/21 17:25:05;;;;;;;;;;;11.70;63.30;;;9.93;64.58;97816.56;12243810;19;19922;-85
2023/12/21 17:29:10;;;;;;;;;;;11.60;63.50;;;9.72;64.52;97783.88;12242546;19;19915;-85
2023/12/21 17:33:11;;;;;;;;;;;11.80;63.60;;;10.31;64.55;97866.72;12237068;19;19922;-85
2023/12/21 17:37:13;;;;;;;;;;;11.60;63.60;;;9.96;64.61;97806.69;12243091;19;19915;-85
2023/12/21 17:41:15;;;;;;;;;;;11.50;63.40;;;9.95;64.65;97825.88;12238599;19;20239;-85
2023/12/21 17:45:16;;;;;;;;;;;11.50;62.30;;;9.89;64.59;97820.47;12242277;19;19927;-85
2023/12/21 17:49:18;;;;;;;;;;;11.30;62.70;;;10.03;64.47;97863.41;12246374;19;19923;-85
2023/12/21 17:53:21;;;;;;;;;;;11.50;62.90;;;9.77;64.53;97848.53;12248204;19;19926;-85
2023/12/21 17:57:22;;;;;;;;;;;11.40;62.90;;;9.78;64.49;97858.00;12254231;19;20481;-85
2023/12/21 18:01:24;;;;;;;;;;;11.40;62.80;;;9.77;64.58;97871.19;12250333;19;19911;-85
2023/12/21 18:05:35;;;;;;;;;;;;;;;;;;;;;
2023/12/21 18:09:40;;;;;;;;;;;11.40;62.20;;;9.71;64.29;97873.41;12249796;19;20287;-85
2023/12/21 18:13:41;;;;;;;;;;;11.30;60.60;;;9.94;64.39;97907.66;12252476;19;19919;-85
2023/12/21 18:17:43;;;;;;;;;;;11.30;61.10;;;9.90;64.46;97911.53;12256420;19;19914;-85
2023/12/21 18:21:47;;;;;;;;;;;11.20;61.00;;;9.81;64.51;97911.63;12251137;19;19970;-85
2023/12/21 18:25:48;;;;;;;;;;;11.20;61.30;;;9.82;64.33;97918.47;12256020;19;19926;-85